Aérodrome :
LOGIN :

S'inscrire | Disclaimer

   EN    FR    IT 

 










Légende :    VFR   VFR Marginal   IFR   IFR Intensif   IFR Très Intensif
Visi : 
Plafond : 
>= 8 km
>= 3000ft
5 à 8 km
1000 à 3000 ft
1500m à 5 km
500 à 1000 ft
800 à 1500m
200 à 500 ft
< 800m
< 200 ft
Symboles :   Orages  Brouillard  Fortes neiges  Fortes précipitations  Vent > 20 kt
SIGMETs :   Divers  Orages  Givrage  Turbulence  Onde Orograph.  Cendres Volcan.






- Altitude de l'aérodrome : 215 ft
- Code IATA : ABZ


EGPD - Aberdeen / Dyce

DERNIER METAR :
  • 160950Z AUTO 16012KT 9999 OVC010 11/10 Q0996 TEMPO SCT012

METARs EXPIRÉS :
  • 160920Z AUTO 16013KT 9999 OVC010 11/10 Q0996 TEMPO SCT012
  • 160850Z AUTO 17011KT 7000 OVC009 11/10 Q0996 TEMPO BKN010
  • 160820Z AUTO 16012KT 8000 BKN008 11/10 Q0996 TEMPO SCT008
  • 160750Z 16011KT 9000 SCT008 10/10 Q0996 NOSIG
  • 160720Z 15005KT 9999 SCT008 09/08 Q0996 TEMPO BKN008

TAF AMD TAF EGPD
Valide du 16 à 07h jusqu'au 17 à 06h UTC


160759Z 1607/1706 15010KT 9999 SCT010
TEMPO 1607/1609 7000 BKN007
TEMPO 1609/1614 6000 -RADZ BKN008
PROB30
TEMPO 1609/1614 3000 RADZ BKN004
BECMG 1613/1616 28008KT



MET'MAP, la Météo Aéronautique d'un coup d'oeil ! - Copyright ORBIFLY Décembre 2007 - Disclaimer

ORBIFLY MET'MAP TEAM :

Programmation & Développement : Alexandra Zaïnal
Conception & Développement : Baudouin d'Aumeries
Co-Programmation & Développement : Marc-Olivier Méhu
Soutien technique & logistique : Manuel Goepfert

Contact : metmap@orbifly.com




SOURCES & CREDITS :

   NOAA